Latest Coastal Weather Observations for Gabo Island (VIC)

IDN60701

Issued at 7:09 pm EDT Thursday 29 January 2015 (issued every 10 minutes, with the page automatically refreshed every 10 minutes)

About coastal observations | Map of coastal stations | Coastal observations for NSW | Marine services | Other Formats
Station Details ID: 084016 Name: GABO ISLAND LIGHTHOUSE Lat: -37.57 Lon: 149.92 Height: 15.2 m
Data from the previous 72 hours. | See also: Recent months at Gabo Island (VIC)
Date/Time
EDT
Temp

°C
Wind Pressure Rain
since 9am
mm
Weather Cloud Vis
km
Sea
Height
m
Swell
Dir
 
Speed
knots
Gust
knots
hPa Trend Height
m
Period
s
Dir
29/07:00pm 18.1 S 29 35 1012.9 - 12.4 - - - - - - -
29/06:30pm 18.3 S 31 36 1012.9 - 12.4 - - - - - - -
29/06:00pm 18.4 S 31 36 1012.9 - 12.4 - - - - - - -
29/05:30pm 18.4 S 30 36 1013.0 - 12.4 - - - - - - -
29/05:00pm 19.1 S 28 35 1013.2 - 12.4 - - - - - - -
29/04:30pm 19.5 S 27 35 1013.4 - 12.4 - - - - - - -
29/04:00pm 18.9 S 29 34 1013.5 - 12.4 - - - - - - -
29/03:30pm 19.4 S 29 36 1013.6 - 12.4 - - - - - - -
29/03:00pm 18.6 S 27 33 1013.8 - 12.4 REC PRECIP Partly cloudy 15 - 1.0 - -
29/02:44pm 17.4 S 22 28 1014.0 - 12.4 - - - - - - -
29/02:30pm 16.8 WSW 21 25 1014.3 - 12.4 - - - - - - -
29/02:00pm 16.5 SW 20 24 1014.7 - 12.4 - - - - - - -
29/01:52pm 16.5 SW 15 26 1014.7 - 12.2 - - - - - - -
29/01:30pm 15.2 SSW 23 28 1015.1 - 11.4 - - - - - - -
29/01:00pm 15.5 SW 27 33 1015.1 - 9.8 - - - - - - -
29/12:30pm 18.1 SW 27 33 1014.9 - 9.0 - - - - - - -
29/12:00pm 17.6 SW 25 29 1015.0 - 9.0 - - - - - - -
29/11:52am 17.4 SW 23 29 1015.2 - 8.8 - - - - - - -
29/11:30am 16.6 S 25 33 1015.5 - 8.8 - - - - - - -
29/11:00am 18.4 SSW 23 28 1015.5 - 8.8 - - - - - - -
29/10:30am 17.7 SSW 19 23 1015.4 - 8.8 - - - - - - -
29/10:00am 16.5 S 22 28 1015.6 - 8.8 - - - - - - -
29/09:30am 12.7 SSW 16 41 1015.8 - 6.8 - - - - - - -
29/09:28am 13.7 S 15 41 1015.9 - 5.4 - - - - - - -
29/09:00am 17.2 SW 11 14 1015.6 - 3.6 Showers Mostly cloudy 5 1 1.0 - SE
29/08:30am 16.8 SW 11 13 1015.6 - 3.6 - - - - - - -
29/08:00am 16.6 S 13 15 1015.5 - 3.6 - - - - - - -
29/07:30am 15.5 S 16 19 1015.3 - 3.6 - - - - - - -
29/07:00am 14.7 S 17 22 1015.4 - 3.2 - - - - - - -
29/06:30am 14.9 SE 16 23 1015.3 - 1.8 - - - - - - -
29/06:00am 16.4 S 16 20 1014.8 - 1.6 - - - - - - -
29/05:30am 16.6 S 18 21 1014.9 - 1.6 - - - - - - -
29/05:00am 16.3 S 19 23 1014.6 - 1.6 - - - - - - -
29/04:30am 15.9 SSE 19 24 1014.4 - 1.6 - - - - - - -
29/04:00am 17.0 S 21 25 1014.4 - 1.6 - - - - - - -
29/03:30am 17.0 S 22 26 1014.8 - 1.6 - - - - - - -
29/03:00am 16.8 S 21 27 1014.9 - 1.6 Fine Partly cloudy 40 2 1.0 - E
29/02:30am 15.1 S 18 28 1015.5 - 1.6 - - - - - - -
29/02:06am 16.9 S 22 32 1015.5 - 1.4 - - - - - - -
29/02:00am 16.6 S 20 25 1015.5 - 1.4 - - - - - - -
29/01:30am 17.1 S 27 30 1015.8 - 1.4 - - - - - - -
29/01:00am 17.0 S 14 20 1016.2 - 1.4 - - - - - - -
29/12:30am 16.8 S 16 21 1016.6 - 1.4 - - - - - - -
29/12:00am 17.4 S 18 21 1016.7 - 1.4 - - - - - - -
 
Date/Time
EDT
Temp

°C
Wind Pressure Rain
since 9am
mm
Weather Cloud Vis
km
Sea
Height
m
Swell
Dir
 
Speed
knots
Gust
knots
hPa Trend Height
m
Period
s
Dir
28/11:30pm 17.5 S 20 24 1016.9 - 1.4 - - - - - - -
28/11:00pm 17.4 S 21 24 1017.3 - 1.4 - - - - - - -
28/10:30pm 17.8 S 18 22 1017.5 - 1.4 - - - - - - -
28/10:00pm 17.5 S 17 21 1017.6 - 1.4 - - - - - - -
28/09:30pm 17.2 S 17 22 1017.7 - 1.4 - - - - - - -
28/09:00pm 17.8 S 19 23 1017.3 - 1.2 Recent precip. Partly cloudy 40 1 1.0 - E
28/08:30pm 17.7 S 20 24 1017.3 - 1.2 - - - - - - -
28/08:09pm 17.3 S 16 20 1017.4 - 1.2 - - - - - - -
28/08:00pm 16.8 SW 7 9 1017.4 - 1.2 - - - - - - -
28/07:30pm 16.2 SW 5 6 1017.3 - 0.8 - - - - - - -
28/07:00pm 15.8 SSE 6 10 1017.4 - 0.8 - - - - - - -
28/06:30pm 17.3 SSE 12 15 1017.5 - 0.6 - - - - - - -
28/06:00pm 17.9 S 13 17 1017.2 - 0.6 - - - - - - -
28/05:30pm 18.4 SSE 16 19 1017.3 - 0.6 - - - - - - -
28/05:00pm 17.6 SE 7 18 1017.5 - 0.6 - - - - - - -
28/04:51pm 17.7 SE 17 25 1017.5 - 0.6 - - - - - - -
28/04:30pm 18.0 S 23 28 1017.3 - 0.6 - - - - - - -
28/04:00pm 19.6 SSW 16 19 1017.0 - 0.6 - - - - - - -
28/03:30pm 19.2 S 17 20 1017.0 - 0.6 - - - - - - -
28/03:00pm 19.8 S 13 19 1017.0 - 0.6 Distant precip. Mostly cloudy 40 1 1.0 - E
28/02:30pm 20.3 S 14 16 1017.1 - 0.6 - - - - - - -
28/02:00pm 20.5 S 11 14 1017.2 - 0.6 - - - - - - -
28/01:30pm 18.9 S 9 11 1017.4 - 0.6 - - - - - - -
28/01:00pm 18.0 S 7 13 1017.6 - 0.6 - - - - - - -
28/12:30pm 19.2 SE 8 11 1017.4 - 0.0 - - - - - - -
28/12:00pm 19.5 SE 7 9 1017.2 - 0.0 - - - - - - -
28/11:30am 20.6 SE 7 10 1017.4 - 0.0 - - - - - - -
28/11:00am 20.5 SE 7 9 1017.4 - 0.0 - - - - - - -
28/10:30am 20.5 SE 9 11 1017.4 - 0.0 - - - - - - -
28/10:00am 20.0 SSE 11 14 1017.3 - 0.0 - - - - - - -
28/09:30am 19.8 SSE 10 14 1017.1 - 0.0 - - - - - - -
28/09:00am 19.3 SSE 14 17 1016.7 - 2.4 Fine Partly cloudy 50 1 1.0 - E
28/08:30am 18.8 S 14 18 1016.7 - 2.4 - - - - - - -
28/08:00am 15.8 W 6 9 1016.8 - 2.4 - - - - - - -
28/07:30am 15.6 WNW 9 12 1016.3 - 2.2 - - - - - - -
28/07:00am 15.5 WNW 8 10 1015.9 - 2.2 - - - - - - -
28/06:30am 15.4 WNW 6 7 1016.0 - 2.2 - - - - - - -
28/06:00am 15.3 N 7 8 1015.8 - 2.2 - - - - - - -
28/05:30am 15.1 NNW 8 9 1015.7 - 2.2 - - - - - - -
28/05:00am 15.2 NNW 9 11 1015.6 - 2.2 - - - - - - -
28/04:30am 15.5 NW 7 9 1015.6 - 2.0 - - - - - - -
28/04:00am 16.6 W 6 9 1015.7 - 0.0 - - - - - - -
28/03:30am 16.5 WNW 8 10 1015.5 - 0.0 - - - - - - -
28/03:00am 16.5 WNW 7 9 1015.6 - 0.0 Fine Mostly cloudy 40 <0.5 1.0 - E
28/02:30am 16.6 WNW 7 9 1016.0 - 0.0 - - - - - - -
28/02:00am 16.9 NW 7 9 1016.2 - 0.0 - - - - - - -
28/01:30am 17.3 W 4 6 1016.3 - 0.0 - - - - - - -
28/01:00am 18.4 S 7 8 1016.5 - 0.0 - - - - - - -
28/12:30am 18.3 S 8 9 1016.6 - 0.0 - - - - - - -
28/12:00am 18.2 S 8 9 1016.6 - 0.0 - - - - - - -
 
Date/Time
EDT
Temp

°C
Wind Pressure Rain
since 9am
mm
Weather Cloud Vis
km
Sea
Height
m
Swell
Dir
 
Speed
knots
Gust
knots
hPa Trend Height
m
Period
s
Dir
27/11:30pm 18.1 SSW 6 7 1016.7 - 0.0 - - - - - - -
27/11:00pm 17.6 W 6 7 1016.7 - 0.0 - - - - - - -
27/10:30pm 17.4 WNW 5 6 1016.9 - 0.0 - - - - - - -
27/10:00pm 17.7 WSW 4 5 1016.7 - 0.0 - - - - - - -
27/09:30pm 18.3 WSW 6 7 1016.7 - 0.0 - - - - - - -
27/09:00pm 18.1 SW 5 6 1016.3 - 0.0 Fine Mostly cloudy 40 <0.5 1.0 - E
27/08:30pm 17.7 W 3 4 1016.2 - 0.0 - - - - - - -
27/08:00pm 18.2 SW 3 4 1016.2 - 0.0 - - - - - - -
27/07:30pm 18.4 SW 3 4 1016.0 - 0.0 - - - - - - -
27/07:00pm 18.5 W 1 3 1015.7 - 0.0 - - - - - - -
27/06:30pm 18.7 N 1 3 1015.5 - 0.0 - - - - - - -
27/06:00pm 18.9 NNE 3 4 1015.3 - 0.0 - - - - - - -
27/05:30pm 18.9 NNE 3 5 1015.6 - 0.0 - - - - - - -
27/05:00pm 18.8 NE 6 7 1015.7 - 0.0 - - - - - - -
27/04:30pm 19.0 NE 7 9 1015.5 - 0.0 - - - - - - -
27/04:00pm 19.1 NNE 8 9 1015.5 - 0.0 - - - - - - -
27/03:30pm 19.8 NNE 7 8 1015.6 - 0.0 - - - - - - -
27/03:00pm 20.2 NE 10 11 1015.6 - 0.0 Fine Mostly cloudy 40 <0.5 1.0 - E
27/02:30pm 19.1 ENE 3 4 1016.0 - 0.0 - - - - - - -
27/02:00pm 19.1 S 3 4 1016.1 - 0.0 - - - - - - -
27/01:30pm 18.8 S 3 4 1016.3 - 0.0 - - - - - - -
27/01:00pm 18.6 CALM 0 0 1016.5 - 0.0 - - - - - - -
27/12:30pm 18.3 S 3 4 1016.7 - 0.0 - - - - - - -
27/12:00pm 18.3 S 1 5 1016.7 - 0.0 - - - - - - -
27/11:30am 18.2 S 4 4 1016.8 - 0.0 - - - - - - -
27/11:00am 18.0 SW 4 5 1016.9 - 0.0 - - - - - - -
27/10:30am 17.9 WSW 4 5 1016.7 - 0.0 - - - - - - -
27/10:00am 17.8 W 4 5 1016.8 - 0.0 - - - - - - -
27/09:30am 18.0 WNW 4 5 1016.6 - 0.0 - - - - - - -
27/09:00am 16.9 WNW 6 7 1016.5 - 0.0 Fine Cloudy 35 <0.5 1.0 - E
27/08:30am 16.5 WNW 7 9 1016.6 - 0.0 - - - - - - -
27/08:00am 16.6 WNW 7 8 1016.3 - 0.0 - - - - - - -
27/07:30am 15.8 WNW 8 10 1016.2 - 0.0 - - - - - - -
27/07:00am 16.0 WNW 8 9 1016.0 - 0.0 - - - - - - -
27/06:30am 15.7 WNW 7 9 1015.8 - 0.0 - - - - - - -
27/06:00am 15.5 WNW 7 8 1015.7 - 0.0 - - - - - - -
27/05:30am 15.5 WNW 7 9 1015.7 - 0.0 - - - - - - -
27/05:00am 15.7 WNW 7 8 1015.7 - 0.0 - - - - - - -
27/04:30am 16.0 WNW 7 9 1015.8 - 0.0 - - - - - - -
27/04:00am 15.3 WNW 7 9 1015.9 - 0.0 - - - - - - -
27/03:30am 15.6 WNW 8 9 1016.1 - 0.0 - - - - - - -
27/03:00am 15.6 WNW 6 8 1016.3 - 0.0 - - - - - - -
27/02:30am 15.6 WNW 7 8 1016.5 - 0.0 - - - - - - -
27/02:00am 15.9 WNW 7 8 1016.7 - 0.0 - - - - - - -
27/01:30am 16.0 WNW 6 8 1016.9 - 0.0 - - - - - - -
27/01:00am 16.0 WNW 6 8 1017.2 - 0.0 - - - - - - -
27/12:30am 16.2 WNW 7 8 1017.5 - 0.0 - - - - - - -
27/12:00am 16.2 WNW 6 8 1017.6 - 0.0 - - - - - - -
 
Date/Time
EDT
Temp

°C
Wind Pressure Rain
since 9am
mm
Weather Cloud Vis
km
Sea
Height
m
Swell
Dir
 
Speed
knots
Gust
knots
hPa Trend Height
m
Period
s
Dir
26/11:30pm 16.3 WNW 6 8 1017.7 - 0.0 - - - - - - -
26/11:00pm 16.5 NW 6 8 1017.8 - 0.0 - - - - - - -
26/10:30pm 17.6 SSW 6 7 1018.0 - 0.0 - - - - - - -
26/10:00pm 17.6 SSW 6 7 1018.0 - 0.0 - - - - - - -
26/09:30pm 17.5 SSW 7 9 1017.8 - 0.0 - - - - - - -
26/09:00pm 17.6 SSW 7 9 1017.5 - 0.0 Fine Mostly cloudy 40 1 1.0 - E
26/08:30pm 17.7 S 8 10 1017.5 - 0.0 - - - - - - -
26/08:00pm 17.7 S 8 11 1017.1 - 0.0 - - - - - - -
26/07:30pm 17.8 S 9 11 1016.8 - 0.0 - - - - - - -

Other Formats:

Comma delimited format used in spreadsheet applications
http://www.bom.gov.au/fwo/IDN60701/IDN60701.94933.axf

JavaScript Object Notation format (JSON) in row-major order
http://www.bom.gov.au/fwo/IDN60701/IDN60701.94933.json